Time;durP1;ratioP1;P1;durP2;ratioP2;P2;SDS_P1;SDS_P2;PMS_P1;PMS_P2;Temp;Humidity;BMP_temperature;BMP_pressure;BME280_temperature;BME280_humidity;BME280_pressure;Samples;Min_cycle;Max_cycle;Signal;HPM_P1;HPM_P2
2021/07/12 00:01:02;;;;;;;2.00;1.90;;;20.20;99.90;;;;;;4895027;29;20774;-78
2021/07/12 00:03:27;;;;;;;1.80;1.70;;;20.20;99.90;;;;;;4880074;29;20796;-78
2021/07/12 00:05:54;;;;;;;2.45;2.25;;;20.20;99.90;;;;;;4874859;29;20435;-77
2021/07/12 00:08:20;;;;;;;1.98;1.88;;;20.20;99.90;;;;;;4875970;29;20447;-77
2021/07/12 00:10:46;;;;;;;1.80;1.70;;;20.10;99.90;;;;;;4902469;29;20946;-78
2021/07/12 00:13:12;;;;;;;2.20;2.05;;;20.10;99.90;;;;;;4873534;29;20440;-77
2021/07/12 00:15:38;;;;;;;1.90;1.80;;;20.10;99.90;;;;;;4873310;29;20517;-77
2021/07/12 00:18:03;;;;;;;2.13;2.03;;;20.10;99.90;;;;;;4870198;29;20419;-77
2021/07/12 00:20:29;;;;;;;3.13;2.03;;;20.10;99.90;;;;;;4872817;29;20905;-80
2021/07/12 00:22:55;;;;;;;2.87;1.80;;;20.00;99.90;;;;;;4890645;29;20411;-77
2021/07/12 00:25:21;;;;;;;3.10;1.98;;;19.90;99.90;;;;;;4881517;29;20454;-77
2021/07/12 00:27:47;;;;;;;2.00;1.90;;;19.90;99.90;;;;;;4880284;29;20911;-77
2021/07/12 00:30:14;;;;;;;2.07;1.93;;;19.90;99.90;;;;;;4891331;29;20906;-77
2021/07/12 00:32:40;;;;;;;2.20;2.10;;;19.80;99.90;;;;;;4897484;29;20469;-77
2021/07/12 00:35:07;;;;;;;2.13;2.03;;;19.80;99.90;;;;;;4877404;29;20407;-77
2021/07/12 00:37:33;;;;;;;2.23;2.03;;;19.80;99.90;;;;;;4879869;29;20484;-78
2021/07/12 00:39:59;;;;;;;2.10;2.00;;;19.60;99.90;;;;;;4888951;29;20502;-77
2021/07/12 00:42:25;;;;;;;2.35;2.22;;;19.60;99.90;;;;;;4905075;29;20417;-77
2021/07/12 00:44:51;;;;;;;4.15;2.50;;;19.60;99.90;;;;;;4891690;29;20852;-77
2021/07/12 00:47:16;;;;;;;3.53;2.75;;;19.50;99.90;;;;;;4875616;29;20427;-77
2021/07/12 00:49:42;;;;;;;2.20;2.00;;;19.50;99.90;;;;;;4878263;29;20798;-76
2021/07/12 00:52:08;;;;;;;2.60;2.40;;;19.40;99.90;;;;;;4882774;29;20432;-77
2021/07/12 00:54:35;;;;;;;2.00;1.90;;;19.40;99.90;;;;;;4880463;29;20414;-78
2021/07/12 00:57:02;;;;;;;2.60;2.10;;;19.50;99.90;;;;;;4860100;29;20415;-77
2021/07/12 00:59:31;;;;;;;2.13;2.03;;;19.50;99.90;;;;;;4894668;29;20407;-77
2021/07/12 01:01:56;;;;;;;2.33;2.13;;;19.60;99.90;;;;;;4875717;29;20463;-78
2021/07/12 01:04:22;;;;;;;1.90;1.80;;;19.60;99.90;;;;;;4877261;29;20418;-77
2021/07/12 01:06:48;;;;;;;2.30;2.10;;;19.60;99.90;;;;;;4876066;29;20444;-77
2021/07/12 01:09:14;;;;;;;2.13;2.00;;;19.60;99.90;;;;;;4892202;29;20443;-77
2021/07/12 01:12:00;;;;;;;2.00;1.90;;;19.60;99.90;;;;;;4872420;29;20389;-77
2021/07/12 01:14:32;;;;;;;1.70;1.60;;;19.60;99.90;;;;;;4897008;29;20477;-77
2021/07/12 01:17:44;;;;;;;1.98;1.88;;;19.60;99.90;;;;;;4896975;29;20401;-77
2021/07/12 01:20:36;;;;;;;2.47;2.28;;;19.60;99.90;;;;;;4889536;29;20407;-77
2021/07/12 01:23:33;;;;;;;1.63;1.52;;;19.50;99.90;;;;;;4899869;29;21167;-77
2021/07/12 01:26:23;;;;;;;2.10;2.00;;;19.40;99.90;;;;;;4884772;29;20409;-77
2021/07/12 01:29:02;;;;;;;2.28;2.08;;;19.50;99.90;;;;;;4892254;29;20426;-77
2021/07/12 01:32:05;;;;;;;2.13;2.03;;;19.50;99.90;;;;;;4875492;29;20405;-77
2021/07/12 01:34:50;;;;;;;2.42;2.22;;;19.50;99.90;;;;;;4894308;29;20411;-78
2021/07/12 01:37:44;;;;;;;2.17;2.07;;;19.50;99.90;;;;;;4881455;29;20402;-78
2021/07/12 01:40:15;;;;;;;2.47;1.98;;;19.50;99.90;;;;;;4875481;29;20419;-77
2021/07/12 01:42:51;;;;;;;1.90;1.80;;;19.50;99.90;;;;;;4905023;29;20911;-77
2021/07/12 01:45:17;;;;;;;2.30;2.17;;;19.50;99.90;;;;;;4892139;29;20482;-76
2021/07/12 01:48:02;;;;;;;2.28;2.08;;;19.50;99.90;;;;;;4896951;29;20409;-77
2021/07/12 01:50:41;;;;;;;2.60;2.40;;;19.40;99.90;;;;;;4879056;29;20445;-76
2021/07/12 01:53:16;;;;;;;2.20;2.00;;;19.40;99.90;;;;;;4887711;29;20435;-76
2021/07/12 01:55:58;;;;;;;2.37;2.23;;;19.40;99.90;;;;;;4884497;29;20412;-77
2021/07/12 01:58:41;;;;;;;1.90;1.80;;;19.40;99.90;;;;;;4865537;29;20438;-76
2021/07/12 02:01:07;;;;;;;2.00;1.90;;;19.40;99.90;;;;;;4874268;29;20483;-77
2021/07/12 02:03:33;;;;;;;2.10;2.00;;;19.40;99.90;;;;;;4875144;29;20987;-76
2021/07/12 02:06:01;;;;;;;2.03;1.92;;;19.40;99.90;;;;;;4898095;29;20403;-76
2021/07/12 02:08:26;;;;;;;1.90;1.80;;;19.40;99.90;;;;;;4874916;29;20930;-77
2021/07/12 02:10:54;;;;;;;3.38;1.88;;;19.40;99.90;;;;;;4881631;29;20417;-75
2021/07/12 02:13:24;;;;;;;2.63;2.42;;;19.40;99.90;;;;;;4875213;29;20417;-77
2021/07/12 02:16:04;;;;;;;2.42;2.22;;;19.40;99.90;;;;;;4863245;29;20939;-76
2021/07/12 02:18:34;;;;;;;2.40;2.20;;;19.30;99.90;;;;;;4890164;29;20827;-77
2021/07/12 02:21:19;;;;;;;2.42;2.22;;;19.30;99.90;;;;;;4877296;29;20417;-76
2021/07/12 02:23:48;;;;;;;2.22;2.03;;;19.30;99.90;;;;;;4902682;29;20432;-76
2021/07/12 02:26:15;;;;;;;2.10;2.00;;;19.30;99.90;;;;;;4882346;29;20422;-75
2021/07/12 02:28:44;;;;;;;1.90;1.80;;;19.30;99.90;;;;;;4884268;29;20410;-76
2021/07/12 02:31:11;;;;;;;2.30;2.20;;;19.30;99.90;;;;;;4879228;29;20601;-77
2021/07/12 02:33:37;;;;;;;2.22;2.13;;;19.30;99.90;;;;;;4874952;29;20837;-76
2021/07/12 02:36:03;;;;;;;1.67;1.58;;;19.30;99.90;;;;;;4874348;29;20462;-76
2021/07/12 02:38:29;;;;;;;1.90;1.80;;;19.30;99.90;;;;;;4867409;29;20941;-76
2021/07/12 02:40:55;;;;;;;1.88;1.77;;;19.40;99.90;;;;;;4878931;29;20892;-76
2021/07/12 02:43:21;;;;;;;2.47;2.27;;;19.40;99.90;;;;;;4900334;29;20405;-77
2021/07/12 02:45:49;;;;;;;2.50;2.30;;;19.50;99.90;;;;;;4886409;29;20442;-76
2021/07/12 02:48:15;;;;;;;2.03;1.93;;;19.40;99.90;;;;;;4879431;29;20486;-77
2021/07/12 02:50:40;;;;;;;2.05;1.95;;;19.30;99.90;;;;;;4878686;29;20423;-78
2021/07/12 02:53:22;;;;;;;2.30;2.10;;;19.30;99.90;;;;;;4887246;29;20494;-76
2021/07/12 02:55:48;;;;;;;2.20;2.10;;;19.30;99.90;;;;;;4884206;29;20431;-76
2021/07/12 02:58:14;;;;;;;2.88;2.28;;;19.30;99.90;;;;;;4873023;29;20411;-76
2021/07/12 03:00:43;;;;;;;2.47;2.30;;;19.30;99.90;;;;;;4888281;29;20411;-77
2021/07/12 03:03:09;;;;;;;2.70;2.50;;;19.20;99.90;;;;;;4879167;29;20800;-75
2021/07/12 03:05:37;;;;;;;1.92;1.83;;;19.20;99.90;;;;;;4875102;29;20411;-76
2021/07/12 03:08:07;;;;;;;2.67;2.47;;;19.10;99.90;;;;;;4857577;29;20922;-76
2021/07/12 03:10:39;;;;;;;3.05;2.58;;;19.10;99.90;;;;;;4872866;29;20415;-75
2021/07/12 03:13:05;;;;;;;2.83;2.20;;;19.10;99.90;;;;;;4874505;29;20418;-76
2021/07/12 03:15:40;;;;;;;2.92;2.72;;;19.20;99.90;;;;;;4873795;29;20889;-76
2021/07/12 03:18:29;;;;;;;2.42;2.22;;;19.20;99.90;;;;;;4879226;29;20423;-76
2021/07/12 03:20:59;;;;;;;2.45;2.30;;;19.20;99.90;;;;;;4875327;29;20414;-76
2021/07/12 03:23:27;;;;;;;2.90;2.70;;;19.20;99.90;;;;;;4879767;29;20433;-76
2021/07/12 03:25:54;;;;;;;2.17;2.07;;;19.10;99.90;;;;;;4881900;29;21158;-76
2021/07/12 03:28:21;;;;;;;2.58;2.38;;;19.10;99.90;;;;;;4891479;29;20417;-76
2021/07/12 03:30:48;;;;;;;2.38;2.08;;;19.10;99.90;;;;;;4872931;29;20435;-76
2021/07/12 03:33:14;;;;;;;2.53;2.33;;;19.20;99.90;;;;;;4879296;29;20407;-76
2021/07/12 03:35:44;;;;;;;2.50;2.30;;;19.20;99.90;;;;;;4875386;29;20451;-77
2021/07/12 03:38:19;;;;;;;3.05;2.70;;;19.30;99.90;;;;;;4874538;29;20473;-76
2021/07/12 03:40:44;;;;;;;2.50;2.30;;;19.30;99.90;;;;;;4857997;29;20484;-76
2021/07/12 03:43:12;;;;;;;2.70;2.50;;;19.30;99.90;;;;;;4878626;29;20402;-76
2021/07/12 03:45:38;;;;;;;2.33;2.13;;;19.40;99.90;;;;;;4872967;29;21183;-76
2021/07/12 03:48:05;;;;;;;2.53;2.33;;;19.40;99.90;;;;;;4841913;29;20461;-76
2021/07/12 03:50:37;;;;;;;2.75;2.55;;;19.40;99.90;;;;;;4895782;29;20415;-75
2021/07/12 03:53:02;;;;;;;2.80;2.60;;;19.40;99.90;;;;;;4877726;29;20490;-75
2021/07/12 03:55:29;;;;;;;4.97;4.57;;;19.40;99.90;;;;;;4901203;29;20421;-76
2021/07/12 03:57:55;;;;;;;3.30;3.10;;;19.40;99.90;;;;;;4877296;29;20410;-76
2021/07/12 04:00:25;;;;;;;3.30;3.10;;;19.30;99.90;;;;;;4861211;29;20484;-76
2021/07/12 04:02:51;;;;;;;2.90;2.67;;;19.30;99.90;;;;;;4846840;29;20419;-75
2021/07/12 04:05:18;;;;;;;2.20;2.10;;;19.30;99.90;;;;;;4875854;29;20832;-76
2021/07/12 04:07:43;;;;;;;2.90;2.70;;;19.30;99.90;;;;;;4891461;29;20498;-76
2021/07/12 04:10:11;;;;;;;3.13;2.90;;;19.40;99.90;;;;;;4891643;29;20418;-76
2021/07/12 04:12:38;;;;;;;2.60;2.40;;;19.40;99.90;;;;;;4894595;29;20953;-76
2021/07/12 04:15:04;;;;;;;2.70;2.50;;;19.50;99.90;;;;;;4889670;29;20434;-76
2021/07/12 04:17:29;;;;;;;3.08;2.88;;;19.50;99.90;;;;;;4865293;29;20403;-76
2021/07/12 04:19:56;;;;;;;5.18;4.70;;;19.50;99.90;;;;;;4876112;29;20407;-76
2021/07/12 04:22:23;;;;;;;3.90;3.60;;;19.50;99.90;;;;;;4878091;29;20415;-76
2021/07/12 04:24:48;;;;;;;3.10;2.90;;;19.50;99.90;;;;;;4880692;29;20532;-76
2021/07/12 04:27:14;;;;;;;2.70;2.50;;;19.50;99.90;;;;;;4893678;29;20832;-76
2021/07/12 04:29:41;;;;;;;2.70;2.50;;;19.50;99.90;;;;;;4899542;29;20435;-76
2021/07/12 04:32:07;;;;;;;2.78;2.58;;;19.60;99.90;;;;;;4902910;29;20910;-77
2021/07/12 04:34:33;;;;;;;2.70;2.50;;;19.60;99.90;;;;;;4910416;29;20401;-75
2021/07/12 04:36:58;;;;;;;2.83;2.63;;;19.60;99.90;;;;;;4861083;29;20425;-75
2021/07/12 04:39:24;;;;;;;3.10;2.90;;;19.70;99.90;;;;;;4876136;29;21127;-76
2021/07/12 04:41:50;;;;;;;2.42;2.22;;;19.60;99.90;;;;;;4886985;29;20890;-76
2021/07/12 04:44:16;;;;;;;4.63;2.50;;;19.60;99.90;;;;;;4892052;29;20429;-76
2021/07/12 04:46:42;;;;;;;2.97;2.78;;;19.70;99.90;;;;;;4891388;29;20411;-76
2021/07/12 04:49:08;;;;;;;2.80;2.60;;;19.70;99.90;;;;;;4876479;29;20407;-75
2021/07/12 04:51:34;;;;;;;2.78;2.58;;;19.70;99.90;;;;;;4896265;29;20497;-75
2021/07/12 04:54:00;;;;;;;2.47;2.37;;;19.70;99.90;;;;;;4905288;29;20543;-75
2021/07/12 04:56:25;;;;;;;2.70;2.50;;;19.80;99.90;;;;;;4894466;29;20405;-76
2021/07/12 04:58:52;;;;;;;3.00;2.80;;;19.90;99.90;;;;;;4884300;29;21043;-76
2021/07/12 05:01:18;;;;;;;2.80;2.60;;;19.90;99.90;;;;;;4879434;29;20897;-76
2021/07/12 05:03:43;;;;;;;3.85;3.15;;;19.90;99.90;;;;;;4893558;29;20415;-75
2021/07/12 05:06:09;;;;;;;3.97;3.43;;;20.00;99.90;;;;;;4875953;29;20507;-76
2021/07/12 05:08:35;;;;;;;2.77;2.50;;;20.00;99.90;;;;;;4870646;29;20403;-75
2021/07/12 05:11:01;;;;;;;2.43;2.23;;;20.00;99.90;;;;;;4882838;29;21051;-76
2021/07/12 05:13:29;;;;;;;2.90;2.70;;;20.10;99.90;;;;;;4888481;29;20470;-76
2021/07/12 05:15:54;;;;;;;3.30;2.63;;;20.10;99.90;;;;;;4858946;29;20433;-77
2021/07/12 05:18:20;;;;;;;2.50;2.30;;;20.20;99.90;;;;;;4892102;29;20415;-77
2021/07/12 05:20:46;;;;;;;2.38;2.17;;;20.20;99.90;;;;;;4885794;29;20417;-77
2021/07/12 05:23:11;;;;;;;2.87;2.67;;;20.30;99.90;;;;;;4878082;29;20421;-78
2021/07/12 05:25:37;;;;;;;2.30;2.20;;;20.30;99.90;;;;;;4885162;29;20990;-78
2021/07/12 05:28:04;;;;;;;1.92;1.83;;;20.40;99.90;;;;;;4872936;29;20430;-78
2021/07/12 05:30:30;;;;;;;3.15;2.65;;;20.40;99.90;;;;;;4899803;29;20417;-78
2021/07/12 05:32:56;;;;;;;2.70;2.50;;;20.40;99.90;;;;;;4893766;29;20469;-79
2021/07/12 05:35:22;;;;;;;3.03;2.80;;;20.40;99.90;;;;;;4894934;29;20539;-78
2021/07/12 05:37:48;;;;;;;2.35;2.15;;;20.40;99.90;;;;;;4902368;29;20430;-79
2021/07/12 05:40:14;;;;;;;2.17;2.08;;;20.50;99.90;;;;;;4887282;29;20414;-78
2021/07/12 05:42:39;;;;;;;2.70;2.50;;;20.60;99.90;;;;;;4861721;29;20407;-79
2021/07/12 05:45:05;;;;;;;2.50;2.30;;;20.80;99.90;;;;;;4877015;29;20399;-78
2021/07/12 05:47:31;;;;;;;3.15;2.88;;;20.80;99.90;;;;;;4875647;29;20802;-78
2021/07/12 05:49:57;;;;;;;3.30;3.00;;;20.80;99.90;;;;;;4882501;29;20414;-79
2021/07/12 05:52:22;;;;;;;3.03;2.80;;;20.70;99.90;;;;;;4882285;29;20805;-79
2021/07/12 05:54:48;;;;;;;3.30;3.00;;;20.80;99.90;;;;;;4900603;29;20448;-78
2021/07/12 05:57:14;;;;;;;3.30;3.00;;;20.90;99.90;;;;;;4863094;29;20439;-78
2021/07/12 05:59:39;;;;;;;5.10;3.40;;;21.00;99.90;;;;;;4877978;29;20410;-77
2021/07/12 06:02:05;;;;;;;3.00;2.80;;;21.00;99.90;;;;;;4883917;29;20410;-78
2021/07/12 06:04:31;;;;;;;3.17;2.97;;;21.10;99.90;;;;;;4905686;29;20423;-78
2021/07/12 06:06:56;;;;;;;2.87;2.67;;;21.10;99.90;;;;;;4882052;29;20401;-78
2021/07/12 06:09:22;;;;;;;3.22;3.00;;;21.10;99.90;;;;;;4895393;29;20566;-79
2021/07/12 06:11:48;;;;;;;3.50;3.20;;;21.20;99.90;;;;;;4877103;29;21118;-78
2021/07/12 06:14:13;;;;;;;3.40;3.10;;;21.20;99.90;;;;;;4876468;29;20410;-78
2021/07/12 06:16:39;;;;;;;3.35;3.08;;;21.20;99.90;;;;;;4859345;29;20427;-79
2021/07/12 06:19:05;;;;;;;3.10;2.90;;;21.20;99.90;;;;;;4875326;29;20805;-79
2021/07/12 06:21:30;;;;;;;2.80;2.60;;;21.20;99.90;;;;;;4867754;29;20417;-79
2021/07/12 06:23:56;;;;;;;2.83;2.63;;;21.20;99.90;;;;;;4880731;29;20409;-79
2021/07/12 06:26:22;;;;;;;2.80;2.53;;;21.30;99.90;;;;;;4886894;29;20405;-81
2021/07/12 06:28:47;;;;;;;2.80;2.60;;;21.30;99.90;;;;;;4886434;29;20407;-78
2021/07/12 06:31:13;;;;;;;3.08;2.88;;;21.30;99.90;;;;;;4889430;29;20498;-79
2021/07/12 06:33:39;;;;;;;6.30;2.63;;;21.20;99.90;;;;;;4860788;29;20409;-81
2021/07/12 06:36:05;;;;;;;3.30;3.00;;;21.20;99.90;;;;;;4869800;29;20439;-81
2021/07/12 06:38:31;;;;;;;2.47;2.28;;;21.10;99.90;;;;;;4878091;29;20413;-79
2021/07/12 06:40:58;;;;;;;2.58;2.38;;;21.20;99.90;;;;;;4869104;29;20416;-80
2021/07/12 06:43:25;;;;;;;2.80;2.60;;;21.30;99.90;;;;;;4877836;29;20470;-80
2021/07/12 06:45:51;;;;;;;2.60;2.40;;;21.30;99.90;;;;;;4871767;29;20411;-78
2021/07/12 06:48:16;;;;;;;2.80;2.60;;;21.30;99.90;;;;;;4876078;29;20407;-78
2021/07/12 06:50:42;;;;;;;3.00;2.80;;;21.40;99.90;;;;;;4875816;29;20419;-79
2021/07/12 06:53:08;;;;;;;2.90;2.70;;;21.50;99.90;;;;;;4870712;29;20853;-78
2021/07/12 06:55:34;;;;;;;2.90;2.70;;;21.50;99.90;;;;;;4898006;29;20397;-82
2021/07/12 06:58:03;;;;;;;3.70;3.33;;;21.60;99.90;;;;;;4877164;29;20758;-79
2021/07/12 07:00:31;;;;;;;3.50;3.20;;;21.60;99.90;;;;;;4893031;29;21294;-79
2021/07/12 07:02:59;;;;;;;3.15;2.78;;;21.60;99.90;;;;;;4891117;29;20490;-79
2021/07/12 07:05:27;;;;;;;3.15;2.95;;;21.70;99.90;;;;;;4876300;29;20418;-79
2021/07/12 07:07:53;;;;;;;2.50;2.30;;;21.80;99.90;;;;;;4882449;29;20475;-80
2021/07/12 07:10:19;;;;;;;3.63;3.33;;;21.90;99.90;;;;;;4876690;29;20505;-79
2021/07/12 07:12:45;;;;;;;3.47;3.17;;;22.00;99.90;;;;;;4876589;29;20415;-79
2021/07/12 07:15:10;;;;;;;4.23;3.40;;;22.10;99.90;;;;;;4874891;29;20399;-78
2021/07/12 07:17:36;;;;;;;3.42;3.13;;;22.00;99.90;;;;;;4874957;29;20413;-78
2021/07/12 07:20:03;;;;;;;3.60;3.30;;;21.90;99.90;;;;;;4870385;29;20416;-79
2021/07/12 07:22:29;;;;;;;2.95;2.70;;;21.80;99.90;;;;;;4877545;29;20816;-80
2021/07/12 07:24:55;;;;;;;4.20;3.57;;;21.80;99.90;;;;;;4878004;29;20418;-79
2021/07/12 07:27:20;;;;;;;4.30;3.90;;;21.80;99.90;;;;;;4899416;29;20575;-79
2021/07/12 07:29:46;;;;;;;3.70;3.40;;;21.80;99.90;;;;;;4856397;29;20511;-79
2021/07/12 07:32:12;;;;;;;3.10;2.90;;;22.00;99.90;;;;;;4871303;29;20763;-78
2021/07/12 07:34:38;;;;;;;3.60;3.30;;;22.20;99.90;;;;;;4872107;29;20445;-79
2021/07/12 07:37:04;;;;;;;2.90;2.70;;;22.50;99.90;;;;;;4873520;29;20940;-80
2021/07/12 07:39:29;;;;;;;3.67;3.38;;;22.60;99.90;;;;;;4892320;29;20493;-79
2021/07/12 07:41:56;;;;;;;3.20;3.00;;;22.70;99.90;;;;;;4867188;29;20399;-79
2021/07/12 07:44:21;;;;;;;3.00;2.80;;;22.80;99.90;;;;;;4892944;29;20398;-79
2021/07/12 07:46:47;;;;;;;3.35;3.05;;;22.90;99.90;;;;;;4877274;29;20782;-79
2021/07/12 07:49:13;;;;;;;3.40;3.10;;;23.00;99.90;;;;;;4881856;29;20788;-80
2021/07/12 07:51:38;;;;;;;3.10;2.70;;;23.00;99.90;;;;;;4878874;29;20422;-81
2021/07/12 07:54:05;;;;;;;3.20;2.92;;;22.90;99.90;;;;;;4879039;29;20418;-80
2021/07/12 07:56:30;;;;;;;2.70;2.50;;;22.90;99.90;;;;;;4908856;29;20768;-81
2021/07/12 07:58:56;;;;;;;2.95;2.75;;;22.90;99.90;;;;;;4881394;29;20418;-79
2021/07/12 08:01:22;;;;;;;3.10;2.90;;;23.10;99.90;;;;;;4863803;29;20498;-80
2021/07/12 08:03:48;;;;;;;4.30;2.90;;;23.20;99.90;;;;;;4871094;29;20509;-83
2021/07/12 08:06:17;;;;;;;3.50;2.83;;;23.30;99.90;;;;;;4867825;29;20409;-79
2021/07/12 08:08:43;;;;;;;3.10;2.90;;;23.40;99.90;;;;;;4883836;29;20476;-79
2021/07/12 08:11:09;;;;;;;2.80;2.60;;;23.50;99.90;;;;;;4907881;29;20952;-80
2021/07/12 08:13:35;;;;;;;3.10;2.88;;;23.30;99.90;;;;;;4876293;29;20426;-79
2021/07/12 08:16:00;;;;;;;3.10;2.80;;;23.20;99.90;;;;;;4877115;29;20398;-78
2021/07/12 08:18:26;;;;;;;2.87;2.67;;;23.20;99.90;;;;;;4876642;29;20407;-79
2021/07/12 08:20:52;;;;;;;2.80;2.60;;;23.30;99.90;;;;;;4885718;29;20898;-78
2021/07/12 08:23:18;;;;;;;2.95;2.65;;;23.50;99.90;;;;;;4906535;29;20405;-79
2021/07/12 08:25:45;;;;;;;2.70;2.50;;;23.70;99.90;;;;;;4890604;29;20992;-79
2021/07/12 08:28:10;;;;;;;3.08;2.78;;;23.70;99.90;;;;;;4878844;29;20422;-78
2021/07/12 08:30:36;;;;;;;3.30;2.80;;;23.90;99.90;;;;;;4861376;29;20407;-79
2021/07/12 08:33:02;;;;;;;2.10;1.98;;;24.10;99.90;;;;;;4876459;29;20492;-78
2021/07/12 08:35:28;;;;;;;2.60;2.40;;;24.20;99.90;;;;;;4879002;29;20457;-79
2021/07/12 08:37:53;;;;;;;2.50;2.25;;;24.30;99.90;;;;;;4862981;29;20439;-79
2021/07/12 08:40:21;;;;;;;2.67;2.47;;;24.40;99.90;;;;;;4876577;29;20399;-78
2021/07/12 08:42:52;;;;;;;4.32;2.65;;;24.50;99.90;;;;;;4868932;29;20461;-81
2021/07/12 08:45:17;;;;;;;2.93;2.70;;;24.50;99.90;;;;;;4921868;29;20478;-79
2021/07/12 08:47:43;;;;;;;3.28;2.78;;;24.30;99.90;;;;;;4877245;29;20495;-79
2021/07/12 08:50:09;;;;;;;3.08;2.88;;;24.30;99.90;;;;;;4876685;29;20944;-79
2021/07/12 08:52:35;;;;;;;2.70;2.50;;;24.30;99.90;;;;;;4877638;29;20414;-79
2021/07/12 08:55:01;;;;;;;2.87;2.67;;;24.50;99.90;;;;;;4886398;29;20457;-79
2021/07/12 08:57:26;;;;;;;3.33;3.03;;;24.60;99.90;;;;;;4892715;29;20934;-78
2021/07/12 08:59:55;;;;;;;3.13;2.80;;;24.50;99.90;;;;;;4892450;29;20762;-79
2021/07/12 09:02:22;;;;;;;2.67;2.47;;;24.40;99.90;;;;;;4901700;29;21053;-79
2021/07/12 09:04:52;;;;;;;2.83;2.63;;;24.50;99.90;;;;;;4880515;29;20477;-78
2021/07/12 09:07:24;;;;;;;2.42;2.30;;;24.70;99.90;;;;;;4859713;29;20442;-79
2021/07/12 09:10:05;;;;;;;3.55;3.00;;;24.60;99.90;;;;;;4896417;29;20438;-78
2021/07/12 09:12:47;;;;;;;2.58;2.38;;;24.40;99.90;;;;;;4862481;29;20407;-78
2021/07/12 09:15:18;;;;;;;4.75;2.67;;;24.40;99.90;;;;;;4861104;29;20399;-77
2021/07/12 09:17:48;;;;;;;3.05;2.85;;;24.40;99.90;;;;;;4873564;29;20438;-78
2021/07/12 09:20:29;;;;;;;2.70;2.50;;;24.30;99.90;;;;;;4877606;29;20958;-77
2021/07/12 09:22:55;;;;;;;7.32;3.17;;;24.40;99.90;;;;;;4896661;29;20412;-78
2021/07/12 09:25:21;;;;;;;3.03;2.83;;;24.50;99.90;;;;;;4885854;29;20419;-76
2021/07/12 09:27:46;;;;;;;2.28;2.17;;;24.30;99.90;;;;;;4877024;29;20780;-78
2021/07/12 09:30:19;;;;;;;3.20;2.73;;;24.30;99.90;;;;;;4874642;29;20415;-78
2021/07/12 09:32:45;;;;;;;2.50;2.30;;;24.30;99.90;;;;;;4876224;29;20431;-78
2021/07/12 09:35:15;;;;;;;2.80;2.60;;;24.30;99.90;;;;;;4876459;29;20403;-77
2021/07/12 09:37:44;;;;;;;2.75;2.55;;;24.50;99.90;;;;;;4865184;29;20506;-78
2021/07/12 09:40:15;;;;;;;3.08;2.65;;;24.50;99.90;;;;;;4873669;29;20493;-78
2021/07/12 09:42:42;;;;;;;3.00;2.80;;;24.40;99.90;;;;;;4863409;29;20746;-79
2021/07/12 09:45:08;;;;;;;2.97;2.78;;;24.30;99.90;;;;;;4875313;29;20407;-78
2021/07/12 09:47:35;;;;;;;3.15;2.92;;;24.30;99.90;;;;;;4886947;29;20414;-77
2021/07/12 09:50:03;;;;;;;2.78;2.58;;;24.20;99.90;;;;;;4875300;29;20490;-77
2021/07/12 09:52:47;;;;;;;2.53;2.33;;;24.40;99.90;;;;;;4876004;29;20406;-79
2021/07/12 09:55:22;;;;;;;2.85;2.65;;;24.60;99.90;;;;;;4887081;29;20768;-78
2021/07/12 09:57:48;;;;;;;2.67;2.47;;;24.60;99.90;;;;;;4901260;29;20445;-78
2021/07/12 10:00:14;;;;;;;3.00;2.75;;;24.70;99.90;;;;;;4877159;29;21186;-78
2021/07/12 10:02:46;;;;;;;2.60;2.40;;;24.50;99.90;;;;;;4880815;29;20442;-76
2021/07/12 10:05:13;;;;;;;2.90;2.70;;;24.30;99.90;;;;;;4883647;29;20397;-76
2021/07/12 10:07:39;;;;;;;2.88;2.58;;;24.20;99.90;;;;;;4886388;29;20421;-76
2021/07/12 10:10:13;;;;;;;3.00;2.80;;;24.20;99.90;;;;;;4865821;29;20446;-76
2021/07/12 10:12:40;;;;;;;2.30;2.20;;;24.20;99.90;;;;;;4865404;29;20471;-75
2021/07/12 10:15:06;;;;;;;2.70;2.50;;;24.40;99.90;;;;;;4874238;29;20398;-76
2021/07/12 10:17:32;;;;;;;2.90;2.70;;;24.40;99.90;;;;;;4888948;29;20972;-76
2021/07/12 10:19:57;;;;;;;2.70;2.50;;;24.60;99.90;;;;;;4877820;29;20407;-76
2021/07/12 10:22:24;;;;;;;2.80;2.60;;;24.50;99.90;;;;;;4859743;29;20893;-76
2021/07/12 10:24:50;;;;;;;2.30;2.20;;;24.50;99.90;;;;;;4876183;29;20514;-75
2021/07/12 10:27:26;;;;;;;2.87;2.67;;;24.50;99.90;;;;;;4860732;29;20482;-75
2021/07/12 10:29:54;;;;;;;2.25;2.15;;;24.70;99.90;;;;;;4858676;29;20480;-75
2021/07/12 10:32:23;;;;;;;2.88;2.67;;;24.60;99.90;;;;;;4874965;29;20873;-76
2021/07/12 10:34:57;;;;;;;2.90;2.70;;;24.70;99.90;;;;;;4875924;29;20403;-75
2021/07/12 10:37:32;;;;;;;2.40;2.30;;;24.80;99.90;;;;;;4887062;29;20411;-76
2021/07/12 10:40:14;;;;;;;2.63;2.42;;;24.90;99.90;;;;;;4885386;29;20421;-76
2021/07/12 10:42:45;;;;;;;3.22;2.25;;;25.00;99.90;;;;;;4894051;29;20957;-76
2021/07/12 10:45:20;;;;;;;2.72;2.53;;;25.20;99.90;;;;;;4890773;29;20415;-76
2021/07/12 10:47:46;;;;;;;3.00;2.80;;;25.50;99.90;;;;;;4886309;29;20415;-76
2021/07/12 10:50:41;;;;;;;2.40;2.30;;;25.60;99.90;;;;;;4874340;29;20437;-76
2021/07/12 10:53:15;;;;;;;2.42;2.22;;;25.70;99.90;;;;;;4869168;29;20404;-76
2021/07/12 10:56:05;;;;;;;2.30;2.20;;;25.80;99.90;;;;;;4885836;29;20401;-76
2021/07/12 10:58:30;;;;;;;2.95;2.50;;;25.90;99.90;;;;;;4902363;29;20495;-76
2021/07/12 11:01:00;;;;;;;2.20;2.10;;;26.10;99.90;;;;;;4869742;29;20484;-76
2021/07/12 11:03:49;;;;;;;2.60;2.42;;;26.40;99.90;;;;;;4878034;29;20409;-75
2021/07/12 11:06:22;;;;;;;2.60;2.40;;;26.50;99.90;;;;;;4875234;29;20421;-77
2021/07/12 11:08:48;;;;;;;2.47;2.28;;;26.50;99.90;;;;;;4885336;29;20843;-76
2021/07/12 11:11:20;;;;;;;2.75;2.30;;;26.60;99.90;;;;;;4892791;29;20418;-75
2021/07/12 11:13:59;;;;;;;2.80;2.60;;;26.80;99.90;;;;;;4890911;29;20545;-76
2021/07/12 11:16:25;;;;;;;2.03;1.92;;;26.90;99.90;;;;;;4855137;29;20418;-76
2021/07/12 11:18:53;;;;;;;2.63;2.43;;;26.90;99.90;;;;;;4855755;29;20411;-76
2021/07/12 11:21:28;;;;;;;2.40;2.25;;;26.80;99.90;;;;;;4880092;29;20415;-76
2021/07/12 11:23:56;;;;;;;3.53;2.20;;;26.90;99.90;;;;;;4876196;29;20414;-76
2021/07/12 11:26:27;;;;;;;2.70;2.50;;;27.00;99.90;;;;;;4889498;29;20577;-77
2021/07/12 11:28:54;;;;;;;2.67;2.05;;;27.10;99.90;;;;;;4867415;29;20449;-76
2021/07/12 11:31:42;;;;;;;2.42;2.30;;;27.30;99.90;;;;;;4873562;29;20426;-76
2021/07/12 11:34:28;;;;;;;2.72;2.22;;;27.60;99.90;;;;;;4870882;29;20416;-77
2021/07/12 11:37:10;;;;;;;2.60;2.40;;;28.40;99.90;;;;;;4870060;29;21000;-77
2021/07/12 11:39:57;;;;;;;2.00;1.90;;;29.10;99.90;;;;;;4874864;29;20411;-76
2021/07/12 11:42:27;;;;;;;2.30;2.10;;;29.30;99.90;;;;;;4867619;29;20984;-77
2021/07/12 11:44:58;;;;;;;2.85;2.35;;;29.60;99.90;;;;;;4904841;29;20397;-78
2021/07/12 11:47:27;;;;;;;2.30;2.10;;;30.00;99.90;;;;;;4881334;29;21051;-76
2021/07/12 11:50:01;;;;;;;2.38;2.17;;;29.70;99.90;;;;;;4857827;29;20435;-77
2021/07/12 11:52:27;;;;;;;2.17;1.98;;;29.50;99.90;;;;;;4873326;29;20400;-76
2021/07/12 11:54:57;;;;;;;2.00;1.90;;;29.00;99.90;;;;;;4862983;29;20550;-77
2021/07/12 11:57:23;;;;;;;2.10;2.00;;;28.30;99.90;;;;;;4887874;29;20436;-76
2021/07/12 11:59:49;;;;;;;2.50;2.30;;;28.20;99.90;;;;;;4888892;29;20431;-77
2021/07/12 12:02:15;;;;;;;2.25;2.15;;;28.40;99.90;;;;;;4882960;29;20407;-76
2021/07/12 12:04:49;;;;;;;2.00;1.80;;;28.40;99.90;;;;;;4875357;29;20511;-77
2021/07/12 12:07:29;;;;;;;2.40;2.20;;;28.50;99.90;;;;;;4874053;29;20401;-76
2021/07/12 12:10:08;;;;;;;2.35;2.15;;;28.60;99.90;;;;;;4874094;29;20458;-77
2021/07/12 12:12:46;;;;;;;2.97;2.10;;;28.70;99.90;;;;;;4874420;29;21079;-77
2021/07/12 12:15:12;;;;;;;2.45;2.25;;;28.70;99.90;;;;;;4872885;29;20490;-77
2021/07/12 12:17:42;;;;;;;2.20;2.10;;;28.80;99.90;;;;;;4871264;29;20403;-78
2021/07/12 12:20:17;;;;;;;2.30;2.20;;;28.90;99.90;;;;;;4873317;29;20414;-77
2021/07/12 12:23:13;;;;;;;2.03;1.93;;;28.90;99.90;;;;;;4896677;29;20465;-77
2021/07/12 12:25:45;;;;;;;2.30;2.10;;;28.90;99.90;;;;;;4852738;29;20478;-77
2021/07/12 12:28:48;;;;;;;2.20;2.10;;;28.80;99.90;;;;;;4886312;29;20399;-77
2021/07/12 12:31:19;;;;;;;1.83;1.73;;;28.60;99.90;;;;;;4863236;29;20428;-77
2021/07/12 12:33:58;;;;;;;1.83;1.73;;;28.60;99.90;;;;;;4861938;29;20417;-76
2021/07/12 12:36:26;;;;;;;2.20;2.10;;;28.50;99.90;;;;;;4865743;29;20406;-76
2021/07/12 12:39:04;;;;;;;1.98;1.88;;;28.40;99.90;;;;;;4883787;29;20407;-77
2021/07/12 12:41:31;;;;;;;1.92;1.83;;;28.20;99.90;;;;;;4880244;29;20989;-76
2021/07/12 12:44:05;;;;;;;2.40;2.30;;;28.10;99.90;;;;;;4885395;29;20930;-76
2021/07/12 12:46:32;;;;;;;2.63;2.42;;;28.00;99.90;;;;;;4879870;29;20924;-77
2021/07/12 12:48:58;;;;;;;3.42;2.65;;;27.70;99.90;;;;;;4858951;29;20408;-76
2021/07/12 12:51:27;;;;;;;2.72;2.53;;;27.50;99.90;;;;;;4871519;29;20424;-76
2021/07/12 12:54:00;;;;;;;3.40;2.88;;;27.30;99.90;;;;;;4886728;29;20414;-76
2021/07/12 12:56:26;;;;;;;2.63;2.42;;;27.20;99.90;;;;;;4892431;29;20398;-77
2021/07/12 12:58:59;;;;;;;2.67;2.47;;;27.00;99.90;;;;;;4862274;29;20522;-77